sensor_id;sensor_type;location;lat;lon;timestamp;P1;durP1;ratioP1;P2;durP2;ratioP2
32236;SDS011;18726;44.732;10.550;2022-10-01T00:00:01;4.25;;;3.58;;
32236;SDS011;18726;44.732;10.550;2022-10-01T00:03:05;3.75;;;3.45;;
32236;SDS011;18726;44.732;10.550;2022-10-01T00:06:10;4.10;;;3.70;;
32236;SDS011;18726;44.732;10.550;2022-10-01T00:09:14;4.28;;;3.67;;
32236;SDS011;18726;44.732;10.550;2022-10-01T00:12:18;4.63;;;3.78;;
32236;SDS011;18726;44.732;10.550;2022-10-01T00:15:22;3.50;;;3.20;;
32236;SDS011;18726;44.732;10.550;2022-10-01T00:18:25;3.40;;;3.10;;
32236;SDS011;18726;44.732;10.550;2022-10-01T00:21:29;3.30;;;3.08;;
32236;SDS011;18726;44.732;10.550;2022-10-01T00:24:34;4.38;;;3.83;;
32236;SDS011;18726;44.732;10.550;2022-10-01T00:27:39;3.53;;;3.22;;
32236;SDS011;18726;44.732;10.550;2022-10-01T00:30:48;3.30;;;3.10;;
32236;SDS011;18726;44.732;10.550;2022-10-01T00:33:52;4.38;;;3.95;;
32236;SDS011;18726;44.732;10.550;2022-10-01T00:37:00;3.85;;;3.55;;
32236;SDS011;18726;44.732;10.550;2022-10-01T00:40:04;4.05;;;3.65;;
32236;SDS011;18726;44.732;10.550;2022-10-01T00:43:21;3.85;;;3.55;;
32236;SDS011;18726;44.732;10.550;2022-10-01T00:46:28;4.38;;;3.97;;
32236;SDS011;18726;44.732;10.550;2022-10-01T00:49:35;4.68;;;4.15;;
32236;SDS011;18726;44.732;10.550;2022-10-01T00:52:42;3.60;;;3.30;;
32236;SDS011;18726;44.732;10.550;2022-10-01T00:55:52;3.40;;;3.10;;
32236;SDS011;18726;44.732;10.550;2022-10-01T00:58:59;3.65;;;3.30;;
32236;SDS011;18726;44.732;10.550;2022-10-01T01:02:03;4.38;;;3.45;;
32236;SDS011;18726;44.732;10.550;2022-10-01T01:05:08;3.97;;;3.63;;
32236;SDS011;18726;44.732;10.550;2022-10-01T01:08:14;6.03;;;3.88;;
32236;SDS011;18726;44.732;10.550;2022-10-01T01:11:22;3.35;;;3.08;;
32236;SDS011;18726;44.732;10.550;2022-10-01T01:21:41;4.65;;;3.20;;
32236;SDS011;18726;44.732;10.550;2022-10-01T01:24:49;3.53;;;3.25;;
32236;SDS011;18726;44.732;10.550;2022-10-01T01:28:24;3.70;;;3.40;;
32236;SDS011;18726;44.732;10.550;2022-10-01T01:31:38;3.47;;;3.20;;
32236;SDS011;18726;44.732;10.550;2022-10-01T01:34:49;2.95;;;2.75;;
32236;SDS011;18726;44.732;10.550;2022-10-01T01:37:55;3.80;;;3.40;;
32236;SDS011;18726;44.732;10.550;2022-10-01T01:41:04;2.97;;;2.70;;
32236;SDS011;18726;44.732;10.550;2022-10-01T01:44:10;4.07;;;3.58;;
32236;SDS011;18726;44.732;10.550;2022-10-01T01:47:14;6.57;;;4.10;;
32236;SDS011;18726;44.732;10.550;2022-10-01T01:50:24;4.00;;;3.70;;
32236;SDS011;18726;44.732;10.550;2022-10-01T01:53:31;3.83;;;3.53;;
32236;SDS011;18726;44.732;10.550;2022-10-01T01:56:34;4.82;;;4.40;;
32236;SDS011;18726;44.732;10.550;2022-10-01T01:59:41;4.50;;;3.97;;
32236;SDS011;18726;44.732;10.550;2022-10-01T02:02:47;4.68;;;4.28;;
32236;SDS011;18726;44.732;10.550;2022-10-01T02:09:13;3.53;;;3.22;;
32236;SDS011;18726;44.732;10.550;2022-10-01T02:25:51;3.28;;;3.08;;
32236;SDS011;18726;44.732;10.550;2022-10-01T02:29:02;3.28;;;2.97;;
32236;SDS011;18726;44.732;10.550;2022-10-01T02:32:09;2.95;;;2.75;;
32236;SDS011;18726;44.732;10.550;2022-10-01T02:35:16;3.15;;;2.95;;
32236;SDS011;18726;44.732;10.550;2022-10-01T02:38:22;3.08;;;2.78;;
32236;SDS011;18726;44.732;10.550;2022-10-01T02:41:28;3.33;;;3.08;;
32236;SDS011;18726;44.732;10.550;2022-10-01T02:44:36;3.28;;;3.08;;
32236;SDS011;18726;44.732;10.550;2022-10-01T02:47:46;2.95;;;2.72;;
32236;SDS011;18726;44.732;10.550;2022-10-01T02:51:02;3.03;;;2.83;;
32236;SDS011;18726;44.732;10.550;2022-10-01T02:54:44;3.40;;;3.10;;
32236;SDS011;18726;44.732;10.550;2022-10-01T02:57:51;2.90;;;2.70;;
32236;SDS011;18726;44.732;10.550;2022-10-01T03:00:55;4.70;;;3.42;;
32236;SDS011;18726;44.732;10.550;2022-10-01T03:03:59;4.85;;;2.67;;
32236;SDS011;18726;44.732;10.550;2022-10-01T03:07:03;3.60;;;3.30;;
32236;SDS011;18726;44.732;10.550;2022-10-01T03:10:07;8.85;;;3.40;;
32236;SDS011;18726;44.732;10.550;2022-10-01T03:13:12;3.53;;;3.33;;
32236;SDS011;18726;44.732;10.550;2022-10-01T03:16:16;4.00;;;3.70;;
32236;SDS011;18726;44.732;10.550;2022-10-01T03:19:20;4.35;;;4.05;;
32236;SDS011;18726;44.732;10.550;2022-10-01T03:22:23;4.10;;;3.70;;
32236;SDS011;18726;44.732;10.550;2022-10-01T03:25:27;3.83;;;3.53;;
32236;SDS011;18726;44.732;10.550;2022-10-01T03:28:31;4.05;;;3.75;;
32236;SDS011;18726;44.732;10.550;2022-10-01T03:31:35;4.30;;;3.83;;
32236;SDS011;18726;44.732;10.550;2022-10-01T03:34:40;4.13;;;3.70;;
32236;SDS011;18726;44.732;10.550;2022-10-01T03:37:44;4.65;;;3.63;;
32236;SDS011;18726;44.732;10.550;2022-10-01T03:40:49;4.38;;;4.07;;
32236;SDS011;18726;44.732;10.550;2022-10-01T03:43:53;5.05;;;4.00;;
32236;SDS011;18726;44.732;10.550;2022-10-01T03:46:57;5.25;;;3.97;;
32236;SDS011;18726;44.732;10.550;2022-10-01T03:50:00;4.18;;;3.88;;
32236;SDS011;18726;44.732;10.550;2022-10-01T03:53:04;5.20;;;4.55;;
32236;SDS011;18726;44.732;10.550;2022-10-01T03:56:09;4.72;;;4.35;;
32236;SDS011;18726;44.732;10.550;2022-10-01T03:59:12;4.28;;;3.97;;
32236;SDS011;18726;44.732;10.550;2022-10-01T04:02:16;4.57;;;4.18;;
32236;SDS011;18726;44.732;10.550;2022-10-01T04:05:20;4.75;;;4.40;;
32236;SDS011;18726;44.732;10.550;2022-10-01T04:08:24;6.28;;;4.35;;
32236;SDS011;18726;44.732;10.550;2022-10-01T04:11:28;3.70;;;3.50;;
32236;SDS011;18726;44.732;10.550;2022-10-01T04:14:32;4.45;;;4.00;;
32236;SDS011;18726;44.732;10.550;2022-10-01T04:17:35;4.07;;;3.70;;
32236;SDS011;18726;44.732;10.550;2022-10-01T04:20:40;4.57;;;4.15;;
32236;SDS011;18726;44.732;10.550;2022-10-01T04:23:44;4.47;;;3.55;;
32236;SDS011;18726;44.732;10.550;2022-10-01T04:26:49;4.43;;;4.03;;
32236;SDS011;18726;44.732;10.550;2022-10-01T04:29:54;4.85;;;4.45;;
32236;SDS011;18726;44.732;10.550;2022-10-01T04:32:58;6.55;;;4.35;;
32236;SDS011;18726;44.732;10.550;2022-10-01T04:36:02;5.10;;;4.68;;
32236;SDS011;18726;44.732;10.550;2022-10-01T04:39:05;4.60;;;4.30;;
32236;SDS011;18726;44.732;10.550;2022-10-01T04:42:10;4.53;;;4.15;;
32236;SDS011;18726;44.732;10.550;2022-10-01T04:45:15;4.03;;;3.63;;
32236;SDS011;18726;44.732;10.550;2022-10-01T04:48:19;3.40;;;3.20;;
32236;SDS011;18726;44.732;10.550;2022-10-01T04:51:22;4.22;;;3.92;;
32236;SDS011;18726;44.732;10.550;2022-10-01T04:54:26;4.53;;;3.58;;
32236;SDS011;18726;44.732;10.550;2022-10-01T04:57:30;4.57;;;3.38;;
32236;SDS011;18726;44.732;10.550;2022-10-01T05:00:34;6.22;;;3.60;;
32236;SDS011;18726;44.732;10.550;2022-10-01T05:03:38;3.42;;;3.22;;
32236;SDS011;18726;44.732;10.550;2022-10-01T05:06:42;7.57;;;3.10;;
32236;SDS011;18726;44.732;10.550;2022-10-01T05:09:46;3.70;;;3.40;;
32236;SDS011;18726;44.732;10.550;2022-10-01T05:12:49;3.70;;;3.40;;
32236;SDS011;18726;44.732;10.550;2022-10-01T05:15:54;4.68;;;3.33;;
32236;SDS011;18726;44.732;10.550;2022-10-01T05:18:57;4.03;;;3.30;;
32236;SDS011;18726;44.732;10.550;2022-10-01T05:22:01;3.38;;;2.92;;
32236;SDS011;18726;44.732;10.550;2022-10-01T05:25:06;3.35;;;3.15;;
32236;SDS011;18726;44.732;10.550;2022-10-01T05:28:10;4.00;;;3.28;;
32236;SDS011;18726;44.732;10.550;2022-10-01T05:31:15;3.50;;;3.20;;
32236;SDS011;18726;44.732;10.550;2022-10-01T05:34:20;3.35;;;3.15;;
32236;SDS011;18726;44.732;10.550;2022-10-01T05:37:24;4.57;;;3.05;;
32236;SDS011;18726;44.732;10.550;2022-10-01T05:40:28;4.05;;;3.75;;
32236;SDS011;18726;44.732;10.550;2022-10-01T05:43:32;3.65;;;3.35;;
32236;SDS011;18726;44.732;10.550;2022-10-01T05:46:36;4.07;;;3.70;;
32236;SDS011;18726;44.732;10.550;2022-10-01T05:49:40;4.07;;;3.20;;
32236;SDS011;18726;44.732;10.550;2022-10-01T05:52:47;3.88;;;3.58;;
32236;SDS011;18726;44.732;10.550;2022-10-01T05:55:53;4.05;;;3.17;;
32236;SDS011;18726;44.732;10.550;2022-10-01T05:58:56;2.90;;;2.70;;
32236;SDS011;18726;44.732;10.550;2022-10-01T06:02:01;3.92;;;3.33;;
32236;SDS011;18726;44.732;10.550;2022-10-01T06:05:06;3.05;;;2.85;;
32236;SDS011;18726;44.732;10.550;2022-10-01T06:08:09;4.13;;;2.78;;
32236;SDS011;18726;44.732;10.550;2022-10-01T06:11:13;2.80;;;2.45;;
32236;SDS011;18726;44.732;10.550;2022-10-01T06:14:17;5.18;;;2.63;;
32236;SDS011;18726;44.732;10.550;2022-10-01T06:17:21;5.22;;;2.30;;
32236;SDS011;18726;44.732;10.550;2022-10-01T06:20:24;2.33;;;2.17;;
32236;SDS011;18726;44.732;10.550;2022-10-01T06:23:27;2.17;;;1.95;;
32236;SDS011;18726;44.732;10.550;2022-10-01T06:26:31;4.45;;;2.42;;
32236;SDS011;18726;44.732;10.550;2022-10-01T06:29:36;3.05;;;2.35;;
32236;SDS011;18726;44.732;10.550;2022-10-01T06:32:40;1.75;;;1.65;;
32236;SDS011;18726;44.732;10.550;2022-10-01T06:35:45;2.90;;;2.08;;
32236;SDS011;18726;44.732;10.550;2022-10-01T06:38:51;2.08;;;1.88;;
32236;SDS011;18726;44.732;10.550;2022-10-01T06:41:54;4.38;;;1.70;;
32236;SDS011;18726;44.732;10.550;2022-10-01T06:44:57;2.88;;;1.67;;
32236;SDS011;18726;44.732;10.550;2022-10-01T06:48:01;1.98;;;1.40;;
32236;SDS011;18726;44.732;10.550;2022-10-01T06:51:04;1.42;;;1.33;;
32236;SDS011;18726;44.732;10.550;2022-10-01T06:54:09;2.30;;;1.20;;
32236;SDS011;18726;44.732;10.550;2022-10-01T06:57:12;3.97;;;1.70;;
32236;SDS011;18726;44.732;10.550;2022-10-01T07:00:16;1.00;;;1.00;;
32236;SDS011;18726;44.732;10.550;2022-10-01T07:03:20;1.75;;;1.15;;
32236;SDS011;18726;44.732;10.550;2022-10-01T07:06:24;3.42;;;1.10;;
32236;SDS011;18726;44.732;10.550;2022-10-01T07:09:29;1.88;;;1.33;;
32236;SDS011;18726;44.732;10.550;2022-10-01T07:12:32;2.88;;;0.95;;
32236;SDS011;18726;44.732;10.550;2022-10-01T07:15:37;2.00;;;1.02;;
32236;SDS011;18726;44.732;10.550;2022-10-01T07:18:41;0.90;;;0.90;;
32236;SDS011;18726;44.732;10.550;2022-10-01T07:21:46;1.52;;;0.93;;
32236;SDS011;18726;44.732;10.550;2022-10-01T07:24:51;4.97;;;1.00;;
32236;SDS011;18726;44.732;10.550;2022-10-01T07:27:56;1.17;;;0.85;;
32236;SDS011;18726;44.732;10.550;2022-10-01T07:31:06;3.30;;;0.80;;
32236;SDS011;18726;44.732;10.550;2022-10-01T07:34:13;7.25;;;1.25;;
32236;SDS011;18726;44.732;10.550;2022-10-01T07:37:17;1.23;;;1.13;;
32236;SDS011;18726;44.732;10.550;2022-10-01T07:40:21;1.45;;;1.10;;
32236;SDS011;18726;44.732;10.550;2022-10-01T07:43:25;3.08;;;1.42;;
32236;SDS011;18726;44.732;10.550;2022-10-01T07:46:29;2.65;;;1.90;;
32236;SDS011;18726;44.732;10.550;2022-10-01T07:49:33;2.22;;;2.00;;
32236;SDS011;18726;44.732;10.550;2022-10-01T07:52:36;5.40;;;2.45;;
32236;SDS011;18726;44.732;10.550;2022-10-01T07:55:40;4.72;;;3.40;;
32236;SDS011;18726;44.732;10.550;2022-10-01T07:58:44;4.63;;;4.22;;
32236;SDS011;18726;44.732;10.550;2022-10-01T08:01:49;6.97;;;4.38;;
32236;SDS011;18726;44.732;10.550;2022-10-01T08:04:53;5.80;;;4.57;;
32236;SDS011;18726;44.732;10.550;2022-10-01T08:08:16;5.05;;;4.47;;
32236;SDS011;18726;44.732;10.550;2022-10-01T08:11:19;5.25;;;4.47;;
32236;SDS011;18726;44.732;10.550;2022-10-01T08:14:23;5.13;;;4.72;;
32236;SDS011;18726;44.732;10.550;2022-10-01T08:17:27;5.28;;;4.32;;
32236;SDS011;18726;44.732;10.550;2022-10-01T08:20:31;4.32;;;3.47;;
32236;SDS011;18726;44.732;10.550;2022-10-01T08:23:35;4.60;;;3.58;;
32236;SDS011;18726;44.732;10.550;2022-10-01T08:26:39;5.45;;;4.70;;
32236;SDS011;18726;44.732;10.550;2022-10-01T08:29:43;3.58;;;3.28;;
32236;SDS011;18726;44.732;10.550;2022-10-01T08:32:47;4.28;;;3.95;;
32236;SDS011;18726;44.732;10.550;2022-10-01T08:35:50;3.47;;;3.17;;
32236;SDS011;18726;44.732;10.550;2022-10-01T08:38:53;6.38;;;3.67;;
32236;SDS011;18726;44.732;10.550;2022-10-01T08:52:25;4.75;;;4.22;;
32236;SDS011;18726;44.732;10.550;2022-10-01T08:55:33;4.18;;;3.70;;
32236;SDS011;18726;44.732;10.550;2022-10-01T08:58:41;4.40;;;4.00;;
32236;SDS011;18726;44.732;10.550;2022-10-01T09:01:47;4.20;;;3.40;;
32236;SDS011;18726;44.732;10.550;2022-10-01T09:04:53;3.17;;;2.88;;
32236;SDS011;18726;44.732;10.550;2022-10-01T09:11:45;5.45;;;3.83;;
32236;SDS011;18726;44.732;10.550;2022-10-01T09:14:57;4.35;;;3.42;;
32236;SDS011;18726;44.732;10.550;2022-10-01T09:25:08;3.55;;;3.25;;
32236;SDS011;18726;44.732;10.550;2022-10-01T09:28:23;4.35;;;3.95;;
32236;SDS011;18726;44.732;10.550;2022-10-01T09:31:34;7.75;;;4.88;;
32236;SDS011;18726;44.732;10.550;2022-10-01T09:34:47;4.70;;;4.30;;
32236;SDS011;18726;44.732;10.550;2022-10-01T09:38:10;4.68;;;4.28;;
32236;SDS011;18726;44.732;10.550;2022-10-01T09:41:15;4.43;;;4.03;;
32236;SDS011;18726;44.732;10.550;2022-10-01T09:44:21;5.65;;;5.15;;
32236;SDS011;18726;44.732;10.550;2022-10-01T09:47:30;4.80;;;4.30;;
32236;SDS011;18726;44.732;10.550;2022-10-01T09:50:42;5.63;;;4.57;;
32236;SDS011;18726;44.732;10.550;2022-10-01T09:57:21;5.95;;;5.28;;
32236;SDS011;18726;44.732;10.550;2022-10-01T10:00:29;5.18;;;4.72;;
32236;SDS011;18726;44.732;10.550;2022-10-01T10:03:34;6.53;;;5.93;;
32236;SDS011;18726;44.732;10.550;2022-10-01T10:06:37;6.78;;;4.60;;
32236;SDS011;18726;44.732;10.550;2022-10-01T10:09:42;6.35;;;5.07;;
32236;SDS011;18726;44.732;10.550;2022-10-01T10:12:46;6.93;;;6.22;;
32236;SDS011;18726;44.732;10.550;2022-10-01T10:15:56;8.95;;;5.00;;
32236;SDS011;18726;44.732;10.550;2022-10-01T10:19:03;5.90;;;5.13;;
32236;SDS011;18726;44.732;10.550;2022-10-01T10:22:17;7.03;;;5.50;;
32236;SDS011;18726;44.732;10.550;2022-10-01T10:25:27;6.05;;;5.25;;
32236;SDS011;18726;44.732;10.550;2022-10-01T10:28:41;6.82;;;5.47;;
32236;SDS011;18726;44.732;10.550;2022-10-01T10:31:47;7.25;;;5.75;;
32236;SDS011;18726;44.732;10.550;2022-10-01T10:34:54;8.18;;;5.97;;
32236;SDS011;18726;44.732;10.550;2022-10-01T10:37:59;7.15;;;6.45;;
32236;SDS011;18726;44.732;10.550;2022-10-01T10:41:04;12.60;;;8.52;;
32236;SDS011;18726;44.732;10.550;2022-10-01T10:44:19;7.40;;;6.70;;
32236;SDS011;18726;44.732;10.550;2022-10-01T10:47:26;7.60;;;6.72;;
32236;SDS011;18726;44.732;10.550;2022-10-01T10:50:32;6.88;;;5.93;;
32236;SDS011;18726;44.732;10.550;2022-10-01T10:53:40;6.63;;;5.72;;
32236;SDS011;18726;44.732;10.550;2022-10-01T10:56:53;7.35;;;5.88;;
32236;SDS011;18726;44.732;10.550;2022-10-01T11:00:22;9.00;;;5.88;;
32236;SDS011;18726;44.732;10.550;2022-10-01T11:03:28;8.70;;;6.55;;
32236;SDS011;18726;44.732;10.550;2022-10-01T11:06:34;7.05;;;6.35;;
32236;SDS011;18726;44.732;10.550;2022-10-01T11:16:42;7.78;;;6.97;;
32236;SDS011;18726;44.732;10.550;2022-10-01T11:23:30;8.00;;;5.80;;
32236;SDS011;18726;44.732;10.550;2022-10-01T11:29:49;6.07;;;5.28;;
32236;SDS011;18726;44.732;10.550;2022-10-01T11:33:19;9.27;;;7.55;;
32236;SDS011;18726;44.732;10.550;2022-10-01T11:37:01;7.15;;;5.43;;
32236;SDS011;18726;44.732;10.550;2022-10-01T11:40:35;6.95;;;6.25;;
32236;SDS011;18726;44.732;10.550;2022-10-01T11:47:01;7.35;;;5.10;;
32236;SDS011;18726;44.732;10.550;2022-10-01T11:50:19;7.35;;;4.93;;
32236;SDS011;18726;44.732;10.550;2022-10-01T11:53:28;6.45;;;5.30;;
32236;SDS011;18726;44.732;10.550;2022-10-01T11:56:48;7.00;;;6.28;;
32236;SDS011;18726;44.732;10.550;2022-10-01T12:00:15;8.43;;;7.45;;
32236;SDS011;18726;44.732;10.550;2022-10-01T12:03:21;8.63;;;6.50;;
32236;SDS011;18726;44.732;10.550;2022-10-01T12:10:15;6.93;;;6.32;;
32236;SDS011;18726;44.732;10.550;2022-10-01T12:13:26;7.88;;;6.80;;
32236;SDS011;18726;44.732;10.550;2022-10-01T12:16:51;9.82;;;8.82;;
32236;SDS011;18726;44.732;10.550;2022-10-01T12:20:00;6.70;;;6.10;;
32236;SDS011;18726;44.732;10.550;2022-10-01T12:23:10;8.93;;;8.00;;
32236;SDS011;18726;44.732;10.550;2022-10-01T12:39:59;9.18;;;8.20;;
32236;SDS011;18726;44.732;10.550;2022-10-01T12:50:36;10.65;;;8.02;;
32236;SDS011;18726;44.732;10.550;2022-10-01T12:57:13;9.70;;;8.63;;
32236;SDS011;18726;44.732;10.550;2022-10-01T13:00:25;9.88;;;7.85;;
32236;SDS011;18726;44.732;10.550;2022-10-01T13:03:44;8.13;;;6.38;;
32236;SDS011;18726;44.732;10.550;2022-10-01T13:13:32;7.50;;;6.43;;
32236;SDS011;18726;44.732;10.550;2022-10-01T13:16:42;7.90;;;6.63;;
32236;SDS011;18726;44.732;10.550;2022-10-01T13:20:22;6.90;;;6.20;;
32236;SDS011;18726;44.732;10.550;2022-10-01T13:30:18;10.15;;;8.52;;
32236;SDS011;18726;44.732;10.550;2022-10-01T13:33:26;8.30;;;7.50;;
32236;SDS011;18726;44.732;10.550;2022-10-01T13:36:38;8.50;;;7.07;;
32236;SDS011;18726;44.732;10.550;2022-10-01T13:39:45;9.20;;;8.30;;
32236;SDS011;18726;44.732;10.550;2022-10-01T13:42:49;10.43;;;7.88;;
32236;SDS011;18726;44.732;10.550;2022-10-01T13:46:03;7.63;;;6.78;;
32236;SDS011;18726;44.732;10.550;2022-10-01T13:49:19;10.73;;;7.45;;
32236;SDS011;18726;44.732;10.550;2022-10-01T13:52:27;9.60;;;8.50;;
32236;SDS011;18726;44.732;10.550;2022-10-01T13:55:31;9.77;;;8.82;;
32236;SDS011;18726;44.732;10.550;2022-10-01T14:01:41;10.80;;;9.70;;
32236;SDS011;18726;44.732;10.550;2022-10-01T14:04:45;12.02;;;9.05;;
32236;SDS011;18726;44.732;10.550;2022-10-01T14:07:51;8.95;;;7.75;;
32236;SDS011;18726;44.732;10.550;2022-10-01T14:11:01;9.15;;;8.25;;
32236;SDS011;18726;44.732;10.550;2022-10-01T14:14:36;8.57;;;7.75;;
32236;SDS011;18726;44.732;10.550;2022-10-01T14:18:04;9.00;;;7.18;;
32236;SDS011;18726;44.732;10.550;2022-10-01T14:27:46;8.88;;;7.22;;
32236;SDS011;18726;44.732;10.550;2022-10-01T14:37:29;10.50;;;8.95;;
32236;SDS011;18726;44.732;10.550;2022-10-01T14:40:36;8.95;;;8.10;;
32236;SDS011;18726;44.732;10.550;2022-10-01T14:43:41;10.13;;;9.02;;
32236;SDS011;18726;44.732;10.550;2022-10-01T14:46:45;8.70;;;7.22;;
32236;SDS011;18726;44.732;10.550;2022-10-01T14:49:48;9.20;;;7.38;;
32236;SDS011;18726;44.732;10.550;2022-10-01T14:52:53;9.65;;;8.50;;
32236;SDS011;18726;44.732;10.550;2022-10-01T14:55:58;8.90;;;7.85;;
32236;SDS011;18726;44.732;10.550;2022-10-01T14:59:09;9.98;;;8.85;;
32236;SDS011;18726;44.732;10.550;2022-10-01T15:02:50;7.78;;;6.80;;
32236;SDS011;18726;44.732;10.550;2022-10-01T15:06:00;11.35;;;9.68;;
32236;SDS011;18726;44.732;10.550;2022-10-01T15:09:12;11.75;;;9.27;;
32236;SDS011;18726;44.732;10.550;2022-10-01T15:12:21;9.02;;;7.93;;
32236;SDS011;18726;44.732;10.550;2022-10-01T15:15:33;8.98;;;7.75;;
32236;SDS011;18726;44.732;10.550;2022-10-01T15:18:47;8.00;;;7.20;;
32236;SDS011;18726;44.732;10.550;2022-10-01T15:21:56;12.00;;;8.73;;
32236;SDS011;18726;44.732;10.550;2022-10-01T15:25:02;10.40;;;8.48;;
32236;SDS011;18726;44.732;10.550;2022-10-01T15:28:13;9.45;;;7.25;;
32236;SDS011;18726;44.732;10.550;2022-10-01T15:31:20;10.57;;;8.23;;
32236;SDS011;18726;44.732;10.550;2022-10-01T15:34:24;9.80;;;7.55;;
32236;SDS011;18726;44.732;10.550;2022-10-01T15:37:30;9.43;;;8.38;;
32236;SDS011;18726;44.732;10.550;2022-10-01T15:40:37;8.73;;;7.82;;
32236;SDS011;18726;44.732;10.550;2022-10-01T15:43:44;10.95;;;7.50;;
32236;SDS011;18726;44.732;10.550;2022-10-01T15:46:48;10.82;;;8.90;;
32236;SDS011;18726;44.732;10.550;2022-10-01T15:53:17;10.77;;;8.68;;
32236;SDS011;18726;44.732;10.550;2022-10-01T15:56:24;7.55;;;6.85;;
32236;SDS011;18726;44.732;10.550;2022-10-01T15:59:27;5.38;;;4.88;;
32236;SDS011;18726;44.732;10.550;2022-10-01T16:02:32;4.88;;;4.40;;
32236;SDS011;18726;44.732;10.550;2022-10-01T16:05:37;5.25;;;2.88;;
32236;SDS011;18726;44.732;10.550;2022-10-01T16:09:02;4.68;;;2.88;;
32236;SDS011;18726;44.732;10.550;2022-10-01T16:12:26;3.53;;;1.90;;
32236;SDS011;18726;44.732;10.550;2022-10-01T16:15:30;2.38;;;1.88;;
32236;SDS011;18726;44.732;10.550;2022-10-01T16:18:34;2.00;;;1.70;;
32236;SDS011;18726;44.732;10.550;2022-10-01T16:21:39;2.00;;;1.80;;
32236;SDS011;18726;44.732;10.550;2022-10-01T16:24:47;5.57;;;2.10;;
32236;SDS011;18726;44.732;10.550;2022-10-01T16:27:59;2.35;;;1.85;;
32236;SDS011;18726;44.732;10.550;2022-10-01T16:31:07;1.88;;;1.75;;
32236;SDS011;18726;44.732;10.550;2022-10-01T16:34:16;2.25;;;1.73;;
32236;SDS011;18726;44.732;10.550;2022-10-01T16:37:21;2.47;;;1.88;;
32236;SDS011;18726;44.732;10.550;2022-10-01T16:40:46;1.83;;;1.73;;
32236;SDS011;18726;44.732;10.550;2022-10-01T16:43:52;2.38;;;1.88;;
32236;SDS011;18726;44.732;10.550;2022-10-01T16:46:58;2.03;;;1.90;;
32236;SDS011;18726;44.732;10.550;2022-10-01T16:50:05;2.10;;;1.90;;
32236;SDS011;18726;44.732;10.550;2022-10-01T16:53:13;2.03;;;1.83;;
32236;SDS011;18726;44.732;10.550;2022-10-01T16:56:18;4.40;;;2.03;;
32236;SDS011;18726;44.732;10.550;2022-10-01T16:59:22;4.25;;;2.38;;
32236;SDS011;18726;44.732;10.550;2022-10-01T17:02:27;3.63;;;1.98;;
32236;SDS011;18726;44.732;10.550;2022-10-01T17:05:32;2.83;;;2.15;;
32236;SDS011;18726;44.732;10.550;2022-10-01T17:08:37;5.10;;;2.13;;
32236;SDS011;18726;44.732;10.550;2022-10-01T17:11:41;2.70;;;2.22;;
32236;SDS011;18726;44.732;10.550;2022-10-01T17:14:46;3.25;;;2.03;;
32236;SDS011;18726;44.732;10.550;2022-10-01T17:17:50;2.25;;;1.88;;
32236;SDS011;18726;44.732;10.550;2022-10-01T17:20:54;2.65;;;2.45;;
32236;SDS011;18726;44.732;10.550;2022-10-01T17:23:58;3.17;;;2.58;;
32236;SDS011;18726;44.732;10.550;2022-10-01T17:27:02;2.35;;;2.10;;
32236;SDS011;18726;44.732;10.550;2022-10-01T17:30:06;2.20;;;2.00;;
32236;SDS011;18726;44.732;10.550;2022-10-01T17:33:10;5.15;;;2.17;;
32236;SDS011;18726;44.732;10.550;2022-10-01T17:36:16;2.83;;;2.60;;
32236;SDS011;18726;44.732;10.550;2022-10-01T17:39:20;2.92;;;2.65;;
32236;SDS011;18726;44.732;10.550;2022-10-01T17:42:23;5.40;;;2.22;;
32236;SDS011;18726;44.732;10.550;2022-10-01T17:45:27;3.03;;;2.80;;
32236;SDS011;18726;44.732;10.550;2022-10-01T17:48:31;3.13;;;2.83;;
32236;SDS011;18726;44.732;10.550;2022-10-01T17:51:35;3.47;;;3.05;;
32236;SDS011;18726;44.732;10.550;2022-10-01T17:54:39;3.20;;;3.00;;
32236;SDS011;18726;44.732;10.550;2022-10-01T17:57:42;3.05;;;2.70;;
32236;SDS011;18726;44.732;10.550;2022-10-01T18:00:46;2.63;;;2.22;;
32236;SDS011;18726;44.732;10.550;2022-10-01T18:03:51;4.00;;;2.65;;
32236;SDS011;18726;44.732;10.550;2022-10-01T18:06:58;3.25;;;2.95;;
32236;SDS011;18726;44.732;10.550;2022-10-01T18:10:04;3.10;;;2.50;;
32236;SDS011;18726;44.732;10.550;2022-10-01T18:13:10;2.63;;;2.20;;
32236;SDS011;18726;44.732;10.550;2022-10-01T18:16:13;3.40;;;2.95;;
32236;SDS011;18726;44.732;10.550;2022-10-01T18:19:17;4.43;;;3.13;;
32236;SDS011;18726;44.732;10.550;2022-10-01T18:22:21;4.35;;;3.25;;
32236;SDS011;18726;44.732;10.550;2022-10-01T18:25:25;4.13;;;3.10;;
32236;SDS011;18726;44.732;10.550;2022-10-01T18:28:30;4.32;;;3.15;;
32236;SDS011;18726;44.732;10.550;2022-10-01T18:31:38;3.67;;;3.33;;
32236;SDS011;18726;44.732;10.550;2022-10-01T18:34:51;4.65;;;2.90;;
32236;SDS011;18726;44.732;10.550;2022-10-01T18:38:14;3.45;;;3.25;;
32236;SDS011;18726;44.732;10.550;2022-10-01T18:41:45;5.15;;;2.85;;
32236;SDS011;18726;44.732;10.550;2022-10-01T18:44:51;3.60;;;3.05;;
32236;SDS011;18726;44.732;10.550;2022-10-01T18:48:07;4.00;;;3.67;;
32236;SDS011;18726;44.732;10.550;2022-10-01T19:08:42;3.17;;;2.35;;
32236;SDS011;18726;44.732;10.550;2022-10-01T19:28:42;3.17;;;2.53;;
32236;SDS011;18726;44.732;10.550;2022-10-01T19:31:51;2.75;;;2.55;;
32236;SDS011;18726;44.732;10.550;2022-10-01T19:38:18;2.67;;;2.47;;
32236;SDS011;18726;44.732;10.550;2022-10-01T19:42:04;2.67;;;2.47;;
32236;SDS011;18726;44.732;10.550;2022-10-01T19:45:32;2.72;;;2.53;;
32236;SDS011;18726;44.732;10.550;2022-10-01T19:48:59;3.83;;;2.90;;
32236;SDS011;18726;44.732;10.550;2022-10-01T19:52:16;2.60;;;2.40;;
32236;SDS011;18726;44.732;10.550;2022-10-01T19:55:22;4.78;;;2.50;;
32236;SDS011;18726;44.732;10.550;2022-10-01T19:58:27;2.83;;;2.63;;
32236;SDS011;18726;44.732;10.550;2022-10-01T20:01:37;7.10;;;3.08;;
32236;SDS011;18726;44.732;10.550;2022-10-01T20:04:49;3.63;;;3.33;;
32236;SDS011;18726;44.732;10.550;2022-10-01T20:08:17;3.47;;;2.83;;
32236;SDS011;18726;44.732;10.550;2022-10-01T20:14:59;3.15;;;2.85;;
32236;SDS011;18726;44.732;10.550;2022-10-01T20:25:45;2.58;;;2.38;;
32236;SDS011;18726;44.732;10.550;2022-10-01T20:32:25;3.08;;;2.88;;
32236;SDS011;18726;44.732;10.550;2022-10-01T20:35:36;5.97;;;2.83;;
32236;SDS011;18726;44.732;10.550;2022-10-01T20:39:08;9.88;;;2.50;;
32236;SDS011;18726;44.732;10.550;2022-10-01T20:42:19;3.15;;;2.80;;
32236;SDS011;18726;44.732;10.550;2022-10-01T20:45:33;3.08;;;2.83;;
32236;SDS011;18726;44.732;10.550;2022-10-01T20:48:38;3.10;;;2.72;;
32236;SDS011;18726;44.732;10.550;2022-10-01T20:55:21;3.60;;;3.30;;
32236;SDS011;18726;44.732;10.550;2022-10-01T20:58:38;6.38;;;3.20;;
32236;SDS011;18726;44.732;10.550;2022-10-01T21:02:00;6.47;;;3.40;;
32236;SDS011;18726;44.732;10.550;2022-10-01T21:05:13;5.80;;;4.13;;
32236;SDS011;18726;44.732;10.550;2022-10-01T21:08:26;5.72;;;4.20;;
32236;SDS011;18726;44.732;10.550;2022-10-01T21:11:35;5.93;;;3.65;;
32236;SDS011;18726;44.732;10.550;2022-10-01T21:14:44;6.70;;;3.80;;
32236;SDS011;18726;44.732;10.550;2022-10-01T21:18:20;5.13;;;4.40;;
32236;SDS011;18726;44.732;10.550;2022-10-01T21:22:00;4.25;;;3.85;;
32236;SDS011;18726;44.732;10.550;2022-10-01T21:38:51;5.88;;;3.03;;
32236;SDS011;18726;44.732;10.550;2022-10-01T21:42:36;5.35;;;3.00;;
32236;SDS011;18726;44.732;10.550;2022-10-01T21:45:43;2.67;;;2.58;;
32236;SDS011;18726;44.732;10.550;2022-10-01T21:49:13;3.35;;;2.90;;
32236;SDS011;18726;44.732;10.550;2022-10-01T22:05:52;3.90;;;3.30;;